createdAt,value
2022-08-05T00:11:30.195Z,1659.44322
2022-08-05T00:26:36.738Z,1642.15736
2022-08-05T00:41:46.806Z,1683.41758
2022-08-05T00:56:54.264Z,1602.87131
2022-08-05T01:11:56.117Z,1509.0095
2022-08-05T01:26:57.942Z,1488.88941
2022-08-05T01:41:59.939Z,1498.88195
2022-08-05T01:58:11.073Z,1507.31208
2022-08-05T02:13:16.906Z,1528.80825
2022-08-05T02:28:29.316Z,1510.71075
2022-08-05T02:43:34.567Z,1492.20542
2022-08-05T02:59:04.810Z,1497.20722
2022-08-05T03:14:07.886Z,1758.53068
2022-08-05T03:29:12.254Z,1932.22833
2022-08-05T03:44:19.970Z,1964.80988
2022-08-05T03:59:22.090Z,1848.27636
2022-08-05T04:14:30.054Z,1807.14817
2022-08-05T04:29:32.490Z,1953.35327
2022-08-05T04:44:34.633Z,2031.84281
2022-08-05T04:59:38.355Z,2063.12598
2022-08-05T05:14:49.435Z,2028.76659
2022-08-05T05:30:04.669Z,2067.90174
2022-08-05T05:45:07.348Z,2152.61095
2022-08-05T06:00:10.257Z,2187.75561
2022-08-05T06:15:23.615Z,2211.22163
2022-08-05T06:30:27.343Z,2265.42739
2022-08-05T06:45:44.527Z,2322.35753
2022-08-05T07:01:05.416Z,2322.35753
2022-08-05T07:16:07.343Z,2316.33586
2022-08-05T07:31:13.938Z,2338.56944
2022-08-05T07:46:18.914Z,2359.15544
2022-08-05T08:01:27.496Z,2334.49528
2022-08-05T08:16:34.309Z,2344.70742
2022-08-05T08:31:44.668Z,2355.0093
2022-08-05T08:46:46.484Z,2359.15544
2022-08-05T09:01:57.025Z,2271.18695
2022-08-05T09:16:59.496Z,2367.49168
2022-08-05T09:32:42.252Z,2322.35753
2022-08-05T09:47:56.255Z,2316.33586
2022-08-05T10:02:59.107Z,2338.56944
2022-08-05T10:18:01.113Z,2350.8777
2022-08-05T10:33:03.689Z,2373.78262
2022-08-05T10:48:30.670Z,2382.22273
2022-08-05T11:03:36.288Z,2431.94244
2022-08-05T11:18:38.656Z,2447.4891
2022-08-05T11:33:48.898Z,2445.25599
2022-08-05T11:48:50.815Z,2438.58104
2022-08-05T12:03:55.556Z,2388.59231
2022-08-05T12:18:58.071Z,2304.38572
2022-08-05T12:33:59.898Z,2302.40601
2022-08-05T12:49:13.078Z,2292.55825
2022-08-05T13:04:20.892Z,2318.33961
2022-08-05T13:19:23.147Z,2308.35537
2022-08-05T13:34:26.256Z,2115.23334
2022-08-05T13:49:28.308Z,2028.76659
2022-08-05T14:04:37.139Z,2008.996
2022-08-05T14:19:54.233Z,1969.14084
2022-08-05T14:34:59.589Z,1983.71627
2022-08-05T14:50:04.858Z,1982.24902
2022-08-05T15:05:14.796Z,2002.99004
2022-08-05T15:20:19.255Z,2002.99004
2022-08-05T15:35:21.961Z,1988.13106
2022-08-05T15:50:25.178Z,2052.06788
2022-08-05T16:05:28.153Z,2097.02711
2022-08-05T16:20:30.513Z,2121.93241
2022-08-05T16:35:41.985Z,2184.18958
2022-08-05T16:50:44.777Z,2220.38162
2022-08-05T17:05:50.213Z,2244.55662
2022-08-05T17:20:55.440Z,2222.22273
2022-08-05T17:36:07.300Z,2316.33586
2022-08-05T17:51:12.586Z,2390.72308
2022-08-05T18:06:15.855Z,2476.89515
2022-08-05T18:21:20.054Z,2542.69501
2022-08-05T18:36:27.812Z,2680.00052
2022-08-05T18:52:04.747Z,2777.2026
2022-08-05T19:07:09.527Z,2818.08675
2022-08-05T19:22:11.475Z,2542.69501
2022-08-05T19:37:19.318Z,2348.81734
2022-08-05T19:52:31.205Z,2267.34399
2022-08-05T20:07:47.277Z,2214.87654
2022-08-05T20:22:51.045Z,2163.03521
2022-08-05T20:38:07.800Z,2097.02711
2022-08-05T20:53:16.092Z,2133.75847
2022-08-05T21:08:42.464Z,2108.57643
2022-08-05T21:23:45.990Z,2111.89964
2022-08-05T21:38:48.665Z,2067.90174
2022-08-05T21:53:56.863Z,2050.49782
2022-08-05T22:09:14.850Z,2031.84281
2022-08-05T22:24:40.730Z,1988.13106
2022-08-05T22:39:55.068Z,1964.80988
2022-08-05T22:54:57.018Z,1949.09141
2022-08-05T23:10:02.134Z,1921.14745
2022-08-05T23:25:04.631Z,1882.02297
2022-08-05T23:40:10.749Z,1812.03566
2022-08-05T23:55:13.521Z,1110.19106
